sensor_id;sensor_type;location;lat;lon;timestamp;temperature;humidity
23618;DHT22;18207;32.078;34.818;2023-04-24T00:00:39;25.50;43.70
23618;DHT22;18207;32.078;34.818;2023-04-24T00:03:12;25.50;43.70
23618;DHT22;18207;32.078;34.818;2023-04-24T00:05:42;25.50;43.70
23618;DHT22;18207;32.078;34.818;2023-04-24T00:08:15;25.50;43.70
23618;DHT22;18207;32.078;34.818;2023-04-24T00:10:45;25.50;43.80
23618;DHT22;18207;32.078;34.818;2023-04-24T00:13:15;25.50;43.70
23618;DHT22;18207;32.078;34.818;2023-04-24T00:15:45;25.50;43.80
23618;DHT22;18207;32.078;34.818;2023-04-24T00:18:16;25.50;43.80
23618;DHT22;18207;32.078;34.818;2023-04-24T00:20:46;25.50;43.80
23618;DHT22;18207;32.078;34.818;2023-04-24T00:23:19;25.40;43.80
23618;DHT22;18207;32.078;34.818;2023-04-24T00:25:48;25.40;43.80
23618;DHT22;18207;32.078;34.818;2023-04-24T00:28:18;25.40;43.80
23618;DHT22;18207;32.078;34.818;2023-04-24T00:30:49;25.40;43.80
23618;DHT22;18207;32.078;34.818;2023-04-24T00:33:19;25.40;43.80
23618;DHT22;18207;32.078;34.818;2023-04-24T00:35:50;25.40;43.90
23618;DHT22;18207;32.078;34.818;2023-04-24T00:38:21;25.40;43.90
23618;DHT22;18207;32.078;34.818;2023-04-24T00:40:51;25.40;43.90
23618;DHT22;18207;32.078;34.818;2023-04-24T00:43:21;25.40;43.90
23618;DHT22;18207;32.078;34.818;2023-04-24T00:45:52;25.40;43.90
23618;DHT22;18207;32.078;34.818;2023-04-24T00:48:23;25.40;43.90
23618;DHT22;18207;32.078;34.818;2023-04-24T00:50:54;25.40;44.00
23618;DHT22;18207;32.078;34.818;2023-04-24T00:53:27;25.40;44.00
23618;DHT22;18207;32.078;34.818;2023-04-24T00:55:58;25.40;44.00
23618;DHT22;18207;32.078;34.818;2023-04-24T00:58:29;25.40;44.00
23618;DHT22;18207;32.078;34.818;2023-04-24T01:01:00;25.40;44.00
23618;DHT22;18207;32.078;34.818;2023-04-24T01:03:30;25.30;44.00
23618;DHT22;18207;32.078;34.818;2023-04-24T01:06:01;25.30;44.00
23618;DHT22;18207;32.078;34.818;2023-04-24T01:08:33;25.30;44.00
23618;DHT22;18207;32.078;34.818;2023-04-24T01:11:05;25.30;44.10
23618;DHT22;18207;32.078;34.818;2023-04-24T01:13:35;25.30;44.10
23618;DHT22;18207;32.078;34.818;2023-04-24T01:16:05;25.30;44.10
23618;DHT22;18207;32.078;34.818;2023-04-24T01:18:35;25.30;44.10
23618;DHT22;18207;32.078;34.818;2023-04-24T01:21:07;25.30;44.20
23618;DHT22;18207;32.078;34.818;2023-04-24T01:23:40;25.30;44.20
23618;DHT22;18207;32.078;34.818;2023-04-24T01:26:10;25.20;44.20
23618;DHT22;18207;32.078;34.818;2023-04-24T01:28:42;25.20;44.20
23618;DHT22;18207;32.078;34.818;2023-04-24T01:31:12;25.20;44.20
23618;DHT22;18207;32.078;34.818;2023-04-24T01:33:43;25.20;44.20
23618;DHT22;18207;32.078;34.818;2023-04-24T01:36:13;25.20;44.20
23618;DHT22;18207;32.078;34.818;2023-04-24T01:38:47;25.20;44.20
23618;DHT22;18207;32.078;34.818;2023-04-24T01:41:17;25.20;44.20
23618;DHT22;18207;32.078;34.818;2023-04-24T01:43:48;25.20;44.20
23618;DHT22;18207;32.078;34.818;2023-04-24T01:46:19;25.10;44.10
23618;DHT22;18207;32.078;34.818;2023-04-24T01:48:50;25.10;44.10
23618;DHT22;18207;32.078;34.818;2023-04-24T01:51:21;25.10;44.10
23618;DHT22;18207;32.078;34.818;2023-04-24T01:53:53;25.10;44.10
23618;DHT22;18207;32.078;34.818;2023-04-24T01:56:23;25.10;44.20
23618;DHT22;18207;32.078;34.818;2023-04-24T01:58:54;25.00;44.20
23618;DHT22;18207;32.078;34.818;2023-04-24T02:01:25;25.00;44.20
23618;DHT22;18207;32.078;34.818;2023-04-24T02:03:55;25.00;44.20
23618;DHT22;18207;32.078;34.818;2023-04-24T02:06:25;25.00;44.20
23618;DHT22;18207;32.078;34.818;2023-04-24T02:08:57;25.00;44.30
23618;DHT22;18207;32.078;34.818;2023-04-24T02:11:27;24.90;44.20
23618;DHT22;18207;32.078;34.818;2023-04-24T02:13:57;25.00;44.40
23618;DHT22;18207;32.078;34.818;2023-04-24T02:16:28;24.90;44.30
23618;DHT22;18207;32.078;34.818;2023-04-24T02:19:00;24.90;44.30
23618;DHT22;18207;32.078;34.818;2023-04-24T02:21:30;24.90;44.40
23618;DHT22;18207;32.078;34.818;2023-04-24T02:24:02;24.90;44.40
23618;DHT22;18207;32.078;34.818;2023-04-24T02:26:33;24.80;44.30
23618;DHT22;18207;32.078;34.818;2023-04-24T02:29:03;24.80;44.30
23618;DHT22;18207;32.078;34.818;2023-04-24T02:31:33;24.80;44.30
23618;DHT22;18207;32.078;34.818;2023-04-24T02:34:03;24.80;44.20
23618;DHT22;18207;32.078;34.818;2023-04-24T02:36:33;24.80;44.30
23618;DHT22;18207;32.078;34.818;2023-04-24T02:39:05;24.80;44.30
23618;DHT22;18207;32.078;34.818;2023-04-24T02:41:35;24.80;44.40
23618;DHT22;18207;32.078;34.818;2023-04-24T02:44:05;24.80;44.40
23618;DHT22;18207;32.078;34.818;2023-04-24T02:46:36;24.80;44.40
23618;DHT22;18207;32.078;34.818;2023-04-24T02:49:05;24.70;44.30
23618;DHT22;18207;32.078;34.818;2023-04-24T02:51:36;24.70;44.30
23618;DHT22;18207;32.078;34.818;2023-04-24T02:54:10;24.70;44.30
23618;DHT22;18207;32.078;34.818;2023-04-24T02:56:40;24.70;44.20
23618;DHT22;18207;32.078;34.818;2023-04-24T02:59:10;24.60;44.20
23618;DHT22;18207;32.078;34.818;2023-04-24T03:01:40;24.70;44.30
23618;DHT22;18207;32.078;34.818;2023-04-24T03:04:11;24.60;44.30
23618;DHT22;18207;32.078;34.818;2023-04-24T03:06:41;24.60;44.40
23618;DHT22;18207;32.078;34.818;2023-04-24T03:09:12;24.60;44.40
23618;DHT22;18207;32.078;34.818;2023-04-24T03:11:42;24.60;44.50
23618;DHT22;18207;32.078;34.818;2023-04-24T03:14:12;24.60;44.50
23618;DHT22;18207;32.078;34.818;2023-04-24T03:16:43;24.60;44.50
23618;DHT22;18207;32.078;34.818;2023-04-24T03:19:13;24.50;44.40
23618;DHT22;18207;32.078;34.818;2023-04-24T03:21:43;24.60;44.50
23618;DHT22;18207;32.078;34.818;2023-04-24T03:24:15;24.50;44.40
23618;DHT22;18207;32.078;34.818;2023-04-24T03:26:46;24.50;44.40
23618;DHT22;18207;32.078;34.818;2023-04-24T03:29:16;24.50;44.40
23618;DHT22;18207;32.078;34.818;2023-04-24T03:31:46;24.50;44.50
23618;DHT22;18207;32.078;34.818;2023-04-24T03:34:16;24.50;44.50
23618;DHT22;18207;32.078;34.818;2023-04-24T03:36:46;24.50;44.50
23618;DHT22;18207;32.078;34.818;2023-04-24T03:39:18;24.50;44.50
23618;DHT22;18207;32.078;34.818;2023-04-24T03:41:48;24.50;44.60
23618;DHT22;18207;32.078;34.818;2023-04-24T03:44:19;24.50;44.60
23618;DHT22;18207;32.078;34.818;2023-04-24T03:46:49;24.50;44.60
23618;DHT22;18207;32.078;34.818;2023-04-24T03:49:19;24.50;44.70
23618;DHT22;18207;32.078;34.818;2023-04-24T03:51:49;24.50;44.70
23618;DHT22;18207;32.078;34.818;2023-04-24T03:54:21;24.50;44.70
23618;DHT22;18207;32.078;34.818;2023-04-24T03:56:52;24.60;44.80
23618;DHT22;18207;32.078;34.818;2023-04-24T03:59:22;24.60;44.80
23618;DHT22;18207;32.078;34.818;2023-04-24T04:01:51;24.60;44.70
23618;DHT22;18207;32.078;34.818;2023-04-24T04:04:22;24.60;44.70
23618;DHT22;18207;32.078;34.818;2023-04-24T04:06:52;24.60;44.70
23618;DHT22;18207;32.078;34.818;2023-04-24T04:09:24;24.60;44.70
23618;DHT22;18207;32.078;34.818;2023-04-24T04:11:54;24.60;44.70
23618;DHT22;18207;32.078;34.818;2023-04-24T04:14:24;24.60;45.30
23618;DHT22;18207;32.078;34.818;2023-04-24T04:16:54;24.60;44.70
23618;DHT22;18207;32.078;34.818;2023-04-24T04:19:25;24.60;44.80
23618;DHT22;18207;32.078;34.818;2023-04-24T04:21:55;24.60;44.70
23618;DHT22;18207;32.078;34.818;2023-04-24T04:24:27;24.70;44.80
23618;DHT22;18207;32.078;34.818;2023-04-24T04:26:57;24.70;44.80
23618;DHT22;18207;32.078;34.818;2023-04-24T04:29:28;24.70;45.40
23618;DHT22;18207;32.078;34.818;2023-04-24T04:31:58;24.70;44.80
23618;DHT22;18207;32.078;34.818;2023-04-24T04:34:30;24.70;44.80
23618;DHT22;18207;32.078;34.818;2023-04-24T04:37:00;24.70;44.70
23618;DHT22;18207;32.078;34.818;2023-04-24T04:39:33;24.70;44.70
23618;DHT22;18207;32.078;34.818;2023-04-24T04:42:02;24.70;44.80
23618;DHT22;18207;32.078;34.818;2023-04-24T04:44:34;24.80;44.90
23618;DHT22;18207;32.078;34.818;2023-04-24T04:47:06;24.80;44.90
23618;DHT22;18207;32.078;34.818;2023-04-24T04:49:36;24.80;44.90
23618;DHT22;18207;32.078;34.818;2023-04-24T04:52:07;24.80;44.90
23618;DHT22;18207;32.078;34.818;2023-04-24T04:54:39;24.90;45.00
23618;DHT22;18207;32.078;34.818;2023-04-24T04:57:09;24.90;45.00
23618;DHT22;18207;32.078;34.818;2023-04-24T04:59:39;24.90;45.00
23618;DHT22;18207;32.078;34.818;2023-04-24T05:02:10;24.90;45.00
23618;DHT22;18207;32.078;34.818;2023-04-24T05:04:41;25.00;45.10
23618;DHT22;18207;32.078;34.818;2023-04-24T05:07:10;25.10;45.20
23618;DHT22;18207;32.078;34.818;2023-04-24T05:09:42;25.10;45.10
23618;DHT22;18207;32.078;34.818;2023-04-24T05:12:12;25.10;45.20
23618;DHT22;18207;32.078;34.818;2023-04-24T05:14:42;25.20;45.30
23618;DHT22;18207;32.078;34.818;2023-04-24T05:17:12;25.30;45.30
23618;DHT22;18207;32.078;34.818;2023-04-24T05:19:43;25.30;45.30
23618;DHT22;18207;32.078;34.818;2023-04-24T05:22:13;25.40;45.40
23618;DHT22;18207;32.078;34.818;2023-04-24T05:24:47;25.50;45.30
23618;DHT22;18207;32.078;34.818;2023-04-24T05:27:17;25.50;45.20
23618;DHT22;18207;32.078;34.818;2023-04-24T05:29:47;25.60;45.20
23618;DHT22;18207;32.078;34.818;2023-04-24T05:32:17;25.60;45.20
23618;DHT22;18207;32.078;34.818;2023-04-24T05:34:47;25.60;45.10
23618;DHT22;18207;32.078;34.818;2023-04-24T05:37:17;25.70;45.20
23618;DHT22;18207;32.078;34.818;2023-04-24T05:39:49;25.80;45.20
23618;DHT22;18207;32.078;34.818;2023-04-24T05:42:19;25.80;45.10
23618;DHT22;18207;32.078;34.818;2023-04-24T05:44:49;25.90;45.10
23618;DHT22;18207;32.078;34.818;2023-04-24T05:47:24;25.90;45.10
23618;DHT22;18207;32.078;34.818;2023-04-24T05:49:54;26.00;45.00
23618;DHT22;18207;32.078;34.818;2023-04-24T05:52:24;26.10;45.10
23618;DHT22;18207;32.078;34.818;2023-04-24T05:54:56;26.10;45.00
23618;DHT22;18207;32.078;34.818;2023-04-24T05:57:26;26.20;45.00
23618;DHT22;18207;32.078;34.818;2023-04-24T05:59:56;26.30;45.00
23618;DHT22;18207;32.078;34.818;2023-04-24T06:02:26;26.40;45.00
23618;DHT22;18207;32.078;34.818;2023-04-24T06:05:00;26.40;44.90
23618;DHT22;18207;32.078;34.818;2023-04-24T06:07:30;26.50;45.00
23618;DHT22;18207;32.078;34.818;2023-04-24T06:10:04;26.50;44.80
23618;DHT22;18207;32.078;34.818;2023-04-24T06:12:35;26.60;44.70
23618;DHT22;18207;32.078;34.818;2023-04-24T06:15:06;26.70;44.60
23618;DHT22;18207;32.078;34.818;2023-04-24T06:17:37;26.80;44.60
23618;DHT22;18207;32.078;34.818;2023-04-24T06:20:08;26.80;44.40
23618;DHT22;18207;32.078;34.818;2023-04-24T06:22:38;26.90;44.30
23618;DHT22;18207;32.078;34.818;2023-04-24T06:25:11;26.90;44.20
23618;DHT22;18207;32.078;34.818;2023-04-24T06:27:42;26.90;44.20
23618;DHT22;18207;32.078;34.818;2023-04-24T06:30:12;27.00;44.90
23618;DHT22;18207;32.078;34.818;2023-04-24T06:32:42;27.10;44.30
23618;DHT22;18207;32.078;34.818;2023-04-24T06:35:12;27.10;44.20
23618;DHT22;18207;32.078;34.818;2023-04-24T06:37:43;27.20;44.20
23618;DHT22;18207;32.078;34.818;2023-04-24T06:40:15;27.20;44.10
23618;DHT22;18207;32.078;34.818;2023-04-24T06:42:46;27.30;44.10
23618;DHT22;18207;32.078;34.818;2023-04-24T06:45:15;27.40;44.10
23618;DHT22;18207;32.078;34.818;2023-04-24T06:47:46;27.40;44.10
23618;DHT22;18207;32.078;34.818;2023-04-24T06:50:16;27.50;43.90
23618;DHT22;18207;32.078;34.818;2023-04-24T06:52:47;27.50;43.80
23618;DHT22;18207;32.078;34.818;2023-04-24T06:55:18;27.60;43.80
23618;DHT22;18207;32.078;34.818;2023-04-24T06:57:48;27.70;43.80
23618;DHT22;18207;32.078;34.818;2023-04-24T07:00:19;27.70;43.70
23618;DHT22;18207;32.078;34.818;2023-04-24T07:02:51;27.80;43.60
23618;DHT22;18207;32.078;34.818;2023-04-24T07:05:21;27.80;43.50
23618;DHT22;18207;32.078;34.818;2023-04-24T07:07:52;27.90;43.50
23618;DHT22;18207;32.078;34.818;2023-04-24T07:10:24;27.90;43.30
23618;DHT22;18207;32.078;34.818;2023-04-24T07:12:56;28.00;43.30
23618;DHT22;18207;32.078;34.818;2023-04-24T07:15:26;28.00;43.20
23618;DHT22;18207;32.078;34.818;2023-04-24T07:17:56;28.00;43.10
23618;DHT22;18207;32.078;34.818;2023-04-24T07:20:28;28.10;43.10
23618;DHT22;18207;32.078;34.818;2023-04-24T07:22:57;28.10;42.90
23618;DHT22;18207;32.078;34.818;2023-04-24T07:25:30;28.10;42.90
23618;DHT22;18207;32.078;34.818;2023-04-24T07:28:00;28.20;42.80
23618;DHT22;18207;32.078;34.818;2023-04-24T07:30:32;28.20;42.80
23618;DHT22;18207;32.078;34.818;2023-04-24T07:33:02;28.20;42.60
23618;DHT22;18207;32.078;34.818;2023-04-24T07:35:33;28.30;42.70
23618;DHT22;18207;32.078;34.818;2023-04-24T07:38:03;28.30;42.60
23618;DHT22;18207;32.078;34.818;2023-04-24T07:40:35;28.30;42.50
23618;DHT22;18207;32.078;34.818;2023-04-24T07:43:06;28.40;42.50
23618;DHT22;18207;32.078;34.818;2023-04-24T07:45:36;28.40;42.40
23618;DHT22;18207;32.078;34.818;2023-04-24T07:48:09;28.40;42.40
23618;DHT22;18207;32.078;34.818;2023-04-24T07:50:39;28.50;42.40
23618;DHT22;18207;32.078;34.818;2023-04-24T07:53:09;28.50;42.30
23618;DHT22;18207;32.078;34.818;2023-04-24T07:55:41;28.50;42.20
23618;DHT22;18207;32.078;34.818;2023-04-24T07:58:11;28.50;42.10
23618;DHT22;18207;32.078;34.818;2023-04-24T08:00:42;28.50;42.10
23618;DHT22;18207;32.078;34.818;2023-04-24T08:03:12;28.60;42.00
23618;DHT22;18207;32.078;34.818;2023-04-24T08:05:46;28.60;42.00
23618;DHT22;18207;32.078;34.818;2023-04-24T08:08:20;28.60;41.80
23618;DHT22;18207;32.078;34.818;2023-04-24T08:10:53;28.60;41.80
23618;DHT22;18207;32.078;34.818;2023-04-24T08:13:24;28.70;41.90
23618;DHT22;18207;32.078;34.818;2023-04-24T08:15:54;28.70;41.80
23618;DHT22;18207;32.078;34.818;2023-04-24T08:18:26;28.70;41.70
23618;DHT22;18207;32.078;34.818;2023-04-24T08:20:56;28.70;41.70
23618;DHT22;18207;32.078;34.818;2023-04-24T08:23:29;28.70;41.70
23618;DHT22;18207;32.078;34.818;2023-04-24T08:26:01;28.70;41.60
23618;DHT22;18207;32.078;34.818;2023-04-24T08:28:31;28.80;41.50
23618;DHT22;18207;32.078;34.818;2023-04-24T08:31:01;28.80;41.50
23618;DHT22;18207;32.078;34.818;2023-04-24T08:33:31;28.80;41.40
23618;DHT22;18207;32.078;34.818;2023-04-24T08:36:02;28.80;41.40
23618;DHT22;18207;32.078;34.818;2023-04-24T08:38:34;28.80;41.30
23618;DHT22;18207;32.078;34.818;2023-04-24T08:41:06;28.80;41.30
23618;DHT22;18207;32.078;34.818;2023-04-24T08:43:39;28.80;41.30
23618;DHT22;18207;32.078;34.818;2023-04-24T08:46:11;28.90;41.30
23618;DHT22;18207;32.078;34.818;2023-04-24T08:48:43;28.90;41.40
23618;DHT22;18207;32.078;34.818;2023-04-24T08:51:13;28.90;41.40
23618;DHT22;18207;32.078;34.818;2023-04-24T08:53:45;28.90;41.50
23618;DHT22;18207;32.078;34.818;2023-04-24T08:56:18;29.00;41.50
23618;DHT22;18207;32.078;34.818;2023-04-24T08:58:50;29.00;41.50
23618;DHT22;18207;32.078;34.818;2023-04-24T09:01:21;29.00;41.50
23618;DHT22;18207;32.078;34.818;2023-04-24T09:03:55;29.00;41.30
23618;DHT22;18207;32.078;34.818;2023-04-24T09:06:26;29.10;41.30
23618;DHT22;18207;32.078;34.818;2023-04-24T09:08:57;29.10;41.20
23618;DHT22;18207;32.078;34.818;2023-04-24T09:11:31;29.10;41.20
23618;DHT22;18207;32.078;34.818;2023-04-24T09:14:02;29.10;41.20
23618;DHT22;18207;32.078;34.818;2023-04-24T09:16:33;29.10;41.00
23618;DHT22;18207;32.078;34.818;2023-04-24T09:19:03;29.10;40.80
23618;DHT22;18207;32.078;34.818;2023-04-24T09:21:34;29.10;40.70
23618;DHT22;18207;32.078;34.818;2023-04-24T09:24:07;29.10;40.70
23618;DHT22;18207;32.078;34.818;2023-04-24T09:26:46;29.20;40.70
23618;DHT22;18207;32.078;34.818;2023-04-24T09:29:17;29.20;40.70
23618;DHT22;18207;32.078;34.818;2023-04-24T09:31:48;29.20;40.70
23618;DHT22;18207;32.078;34.818;2023-04-24T09:34:22;29.20;40.70
23618;DHT22;18207;32.078;34.818;2023-04-24T09:36:54;29.20;40.60
23618;DHT22;18207;32.078;34.818;2023-04-24T09:39:24;29.20;40.50
23618;DHT22;18207;32.078;34.818;2023-04-24T09:41:56;29.20;40.30
23618;DHT22;18207;32.078;34.818;2023-04-24T09:44:28;29.20;40.20
23618;DHT22;18207;32.078;34.818;2023-04-24T09:46:59;29.20;40.10
23618;DHT22;18207;32.078;34.818;2023-04-24T09:49:30;29.20;40.10
23618;DHT22;18207;32.078;34.818;2023-04-24T09:52:04;29.20;40.10
23618;DHT22;18207;32.078;34.818;2023-04-24T09:54:35;29.20;40.10
23618;DHT22;18207;32.078;34.818;2023-04-24T09:57:08;29.20;40.10
23618;DHT22;18207;32.078;34.818;2023-04-24T09:59:42;29.20;40.10
23618;DHT22;18207;32.078;34.818;2023-04-24T10:02:19;29.20;39.80
23618;DHT22;18207;32.078;34.818;2023-04-24T10:04:54;29.20;39.60
23618;DHT22;18207;32.078;34.818;2023-04-24T10:07:27;29.20;39.60
23618;DHT22;18207;32.078;34.818;2023-04-24T10:09:57;29.20;39.80
23618;DHT22;18207;32.078;34.818;2023-04-24T10:12:31;29.20;39.80
23618;DHT22;18207;32.078;34.818;2023-04-24T10:15:01;29.20;39.70
23618;DHT22;18207;32.078;34.818;2023-04-24T10:17:33;29.20;39.60
23618;DHT22;18207;32.078;34.818;2023-04-24T10:20:05;29.30;39.70
23618;DHT22;18207;32.078;34.818;2023-04-24T10:22:37;29.30;39.70
23618;DHT22;18207;32.078;34.818;2023-04-24T10:25:08;29.30;39.50
23618;DHT22;18207;32.078;34.818;2023-04-24T10:27:41;29.30;39.30
23618;DHT22;18207;32.078;34.818;2023-04-24T10:30:12;29.30;39.20
23618;DHT22;18207;32.078;34.818;2023-04-24T10:32:44;29.30;39.10
23618;DHT22;18207;32.078;34.818;2023-04-24T10:35:18;29.30;39.10
23618;DHT22;18207;32.078;34.818;2023-04-24T10:37:52;29.30;38.90
23618;DHT22;18207;32.078;34.818;2023-04-24T10:40:30;29.30;38.90
23618;DHT22;18207;32.078;34.818;2023-04-24T10:43:04;29.30;38.90
23618;DHT22;18207;32.078;34.818;2023-04-24T10:45:37;29.30;38.50
23618;DHT22;18207;32.078;34.818;2023-04-24T10:48:08;29.30;38.40
23618;DHT22;18207;32.078;34.818;2023-04-24T10:50:45;29.30;38.40
23618;DHT22;18207;32.078;34.818;2023-04-24T10:53:18;29.30;38.20
23618;DHT22;18207;32.078;34.818;2023-04-24T10:55:52;29.30;38.20
23618;DHT22;18207;32.078;34.818;2023-04-24T10:58:39;29.30;38.10
23618;DHT22;18207;32.078;34.818;2023-04-24T11:01:24;29.30;37.90
23618;DHT22;18207;32.078;34.818;2023-04-24T11:03:57;29.30;37.70
23618;DHT22;18207;32.078;34.818;2023-04-24T11:06:31;29.20;37.90
23618;DHT22;18207;32.078;34.818;2023-04-24T11:09:04;29.30;37.70
23618;DHT22;18207;32.078;34.818;2023-04-24T11:11:37;29.20;37.60
23618;DHT22;18207;32.078;34.818;2023-04-24T11:14:13;29.30;37.70
23618;DHT22;18207;32.078;34.818;2023-04-24T11:16:45;29.20;37.50
23618;DHT22;18207;32.078;34.818;2023-04-24T11:19:23;29.20;37.50
23618;DHT22;18207;32.078;34.818;2023-04-24T11:21:59;29.20;37.60
23618;DHT22;18207;32.078;34.818;2023-04-24T11:24:31;29.20;37.40
23618;DHT22;18207;32.078;34.818;2023-04-24T11:27:13;29.20;37.50
23618;DHT22;18207;32.078;34.818;2023-04-24T11:29:48;29.20;37.60
23618;DHT22;18207;32.078;34.818;2023-04-24T11:32:26;29.20;37.80
23618;DHT22;18207;32.078;34.818;2023-04-24T11:34:59;29.20;37.60
23618;DHT22;18207;32.078;34.818;2023-04-24T11:37:35;29.20;37.70
23618;DHT22;18207;32.078;34.818;2023-04-24T11:40:07;29.20;37.60
23618;DHT22;18207;32.078;34.818;2023-04-24T11:42:40;29.20;37.70
23618;DHT22;18207;32.078;34.818;2023-04-24T11:45:16;29.20;37.60
23618;DHT22;18207;32.078;34.818;2023-04-24T11:47:48;29.20;37.60
23618;DHT22;18207;32.078;34.818;2023-04-24T11:50:22;29.20;37.70
23618;DHT22;18207;32.078;34.818;2023-04-24T11:52:55;29.20;37.70
23618;DHT22;18207;32.078;34.818;2023-04-24T11:55:29;29.10;37.70
23618;DHT22;18207;32.078;34.818;2023-04-24T11:57:59;29.20;37.80
23618;DHT22;18207;32.078;34.818;2023-04-24T12:00:32;29.20;37.80
23618;DHT22;18207;32.078;34.818;2023-04-24T12:03:06;29.10;37.70
23618;DHT22;18207;32.078;34.818;2023-04-24T12:05:38;29.10;37.70
23618;DHT22;18207;32.078;34.818;2023-04-24T12:08:09;29.10;37.70
23618;DHT22;18207;32.078;34.818;2023-04-24T12:10:39;29.10;37.80
23618;DHT22;18207;32.078;34.818;2023-04-24T12:13:09;29.10;37.80
23618;DHT22;18207;32.078;34.818;2023-04-24T12:15:42;29.10;37.80
23618;DHT22;18207;32.078;34.818;2023-04-24T12:18:13;29.10;37.90
23618;DHT22;18207;32.078;34.818;2023-04-24T12:20:49;29.10;37.90
23618;DHT22;18207;32.078;34.818;2023-04-24T12:23:34;29.00;37.90
23618;DHT22;18207;32.078;34.818;2023-04-24T12:26:05;29.00;37.90
23618;DHT22;18207;32.078;34.818;2023-04-24T12:28:35;29.00;38.00
23618;DHT22;18207;32.078;34.818;2023-04-24T12:31:08;29.00;38.10
23618;DHT22;18207;32.078;34.818;2023-04-24T12:33:39;28.90;38.10
23618;DHT22;18207;32.078;34.818;2023-04-24T12:36:10;29.00;38.20
23618;DHT22;18207;32.078;34.818;2023-04-24T12:38:44;28.90;38.10
23618;DHT22;18207;32.078;34.818;2023-04-24T12:41:14;28.90;38.20
23618;DHT22;18207;32.078;34.818;2023-04-24T12:43:52;28.90;38.10
23618;DHT22;18207;32.078;34.818;2023-04-24T12:46:25;28.90;38.10
23618;DHT22;18207;32.078;34.818;2023-04-24T12:48:55;28.80;38.10
23618;DHT22;18207;32.078;34.818;2023-04-24T12:51:26;28.80;38.00
23618;DHT22;18207;32.078;34.818;2023-04-24T12:53:55;28.80;38.10
23618;DHT22;18207;32.078;34.818;2023-04-24T12:56:27;28.80;38.10
23618;DHT22;18207;32.078;34.818;2023-04-24T12:58:58;28.80;38.20
23618;DHT22;18207;32.078;34.818;2023-04-24T13:01:30;28.80;38.10
23618;DHT22;18207;32.078;34.818;2023-04-24T13:04:00;28.80;38.10
23618;DHT22;18207;32.078;34.818;2023-04-24T13:06:30;28.80;38.10
23618;DHT22;18207;32.078;34.818;2023-04-24T13:09:00;28.80;38.10
23618;DHT22;18207;32.078;34.818;2023-04-24T13:11:31;28.70;38.10
23618;DHT22;18207;32.078;34.818;2023-04-24T13:14:01;28.70;38.20
23618;DHT22;18207;32.078;34.818;2023-04-24T13:16:32;28.60;38.20
23618;DHT22;18207;32.078;34.818;2023-04-24T13:19:02;28.70;38.30
23618;DHT22;18207;32.078;34.818;2023-04-24T13:21:33;28.60;38.30
23618;DHT22;18207;32.078;34.818;2023-04-24T13:24:03;28.60;38.40
23618;DHT22;18207;32.078;34.818;2023-04-24T13:26:35;28.60;38.40
23618;DHT22;18207;32.078;34.818;2023-04-24T13:29:05;28.60;38.50
23618;DHT22;18207;32.078;34.818;2023-04-24T13:31:37;28.60;38.50
23618;DHT22;18207;32.078;34.818;2023-04-24T13:34:07;28.60;38.50
23618;DHT22;18207;32.078;34.818;2023-04-24T13:36:38;28.60;38.50
23618;DHT22;18207;32.078;34.818;2023-04-24T13:39:08;28.60;38.50
23618;DHT22;18207;32.078;34.818;2023-04-24T13:41:38;28.50;38.40
23618;DHT22;18207;32.078;34.818;2023-04-24T13:44:09;28.60;38.50
23618;DHT22;18207;32.078;34.818;2023-04-24T13:46:41;28.50;38.50
23618;DHT22;18207;32.078;34.818;2023-04-24T13:49:13;28.50;38.50
23618;DHT22;18207;32.078;34.818;2023-04-24T13:51:44;28.40;38.50
23618;DHT22;18207;32.078;34.818;2023-04-24T13:54:14;28.40;38.50
23618;DHT22;18207;32.078;34.818;2023-04-24T13:56:45;28.40;38.50
23618;DHT22;18207;32.078;34.818;2023-04-24T13:59:15;28.30;38.50
23618;DHT22;18207;32.078;34.818;2023-04-24T14:01:47;28.40;38.70
23618;DHT22;18207;32.078;34.818;2023-04-24T14:04:17;28.30;38.60
23618;DHT22;18207;32.078;34.818;2023-04-24T14:06:47;28.30;38.60
23618;DHT22;18207;32.078;34.818;2023-04-24T14:09:18;28.30;38.70
23618;DHT22;18207;32.078;34.818;2023-04-24T14:11:48;28.20;38.70
23618;DHT22;18207;32.078;34.818;2023-04-24T14:14:18;28.20;38.70
23618;DHT22;18207;32.078;34.818;2023-04-24T14:16:50;28.20;38.70
23618;DHT22;18207;32.078;34.818;2023-04-24T14:19:21;28.20;38.70
23618;DHT22;18207;32.078;34.818;2023-04-24T14:21:51;28.20;38.70
23618;DHT22;18207;32.078;34.818;2023-04-24T14:24:23;28.10;38.70
23618;DHT22;18207;32.078;34.818;2023-04-24T14:26:53;28.20;38.80
23618;DHT22;18207;32.078;34.818;2023-04-24T14:29:23;28.10;38.80
23618;DHT22;18207;32.078;34.818;2023-04-24T14:31:55;28.10;38.90
23618;DHT22;18207;32.078;34.818;2023-04-24T14:34:25;28.10;38.90
23618;DHT22;18207;32.078;34.818;2023-04-24T14:36:56;28.10;38.90
23618;DHT22;18207;32.078;34.818;2023-04-24T14:39:26;28.00;38.90
23618;DHT22;18207;32.078;34.818;2023-04-24T14:41:58;28.10;38.70
23618;DHT22;18207;32.078;34.818;2023-04-24T14:44:28;28.00;38.50
23618;DHT22;18207;32.078;34.818;2023-04-24T14:47:00;28.00;38.60
23618;DHT22;18207;32.078;34.818;2023-04-24T14:49:31;28.00;38.70
23618;DHT22;18207;32.078;34.818;2023-04-24T14:52:01;28.00;38.80
23618;DHT22;18207;32.078;34.818;2023-04-24T14:54:31;28.00;38.90
23618;DHT22;18207;32.078;34.818;2023-04-24T14:57:01;28.00;38.90
23618;DHT22;18207;32.078;34.818;2023-04-24T14:59:31;27.90;38.90
23618;DHT22;18207;32.078;34.818;2023-04-24T15:02:04;27.90;39.00
23618;DHT22;18207;32.078;34.818;2023-04-24T15:04:42;27.90;39.00
23618;DHT22;18207;32.078;34.818;2023-04-24T15:07:13;27.90;39.10
23618;DHT22;18207;32.078;34.818;2023-04-24T15:09:43;27.90;39.10
23618;DHT22;18207;32.078;34.818;2023-04-24T15:12:14;27.90;39.20
23618;DHT22;18207;32.078;34.818;2023-04-24T15:14:45;27.90;39.20
23618;DHT22;18207;32.078;34.818;2023-04-24T15:17:16;27.90;39.30
23618;DHT22;18207;32.078;34.818;2023-04-24T15:19:46;27.90;39.40
23618;DHT22;18207;32.078;34.818;2023-04-24T15:22:16;27.80;39.40
23618;DHT22;18207;32.078;34.818;2023-04-24T15:24:47;27.80;39.40
23618;DHT22;18207;32.078;34.818;2023-04-24T15:27:17;27.80;39.50
23618;DHT22;18207;32.078;34.818;2023-04-24T15:29:47;27.80;39.50
23618;DHT22;18207;32.078;34.818;2023-04-24T15:32:20;27.80;39.70
23618;DHT22;18207;32.078;34.818;2023-04-24T15:34:50;27.70;39.70
23618;DHT22;18207;32.078;34.818;2023-04-24T15:37:34;27.80;39.80
23618;DHT22;18207;32.078;34.818;2023-04-24T15:40:05;27.70;39.80